sensor_id;sensor_type;location;lat;lon;timestamp;P1;durP1;ratioP1;P2;durP2;ratioP2
77748;SDS011;66938;52.084;5.228;2023-07-22T00:00:09;17.11;;;14.6;;
77748;SDS011;66938;52.084;5.228;2023-07-22T00:01:46;18.7;;;15.9;;
77748;SDS011;66938;52.084;5.228;2023-07-22T00:04:58;18.3;;;15.5;;
77748;SDS011;66938;52.084;5.228;2023-07-22T00:06:34;17.8;;;15.9;;
77748;SDS011;66938;52.084;5.228;2023-07-22T00:08:10;18.61;;;15.7;;
77748;SDS011;66938;52.084;5.228;2023-07-22T00:11:22;19.41;;;15.5;;
77748;SDS011;66938;52.084;5.228;2023-07-22T00:12:58;18.5;;;15.2;;
77748;SDS011;66938;52.084;5.228;2023-07-22T00:14:35;17.0;;;15.0;;
77748;SDS011;66938;52.084;5.228;2023-07-22T00:17:52;18.61;;;15.9;;
77748;SDS011;66938;52.084;5.228;2023-07-22T00:19:28;19.8;;;16.2;;
77748;SDS011;66938;52.084;5.228;2023-07-22T00:21:04;19.0;;;16.11;;
77748;SDS011;66938;52.084;5.228;2023-07-22T00:22:40;19.7;;;16.3;;
77748;SDS011;66938;52.084;5.228;2023-07-22T00:25:52;19.91;;;16.61;;
77748;SDS011;66938;52.084;5.228;2023-07-22T00:27:28;17.8;;;15.3;;
77748;SDS011;66938;52.084;5.228;2023-07-22T00:29:04;19.11;;;15.8;;
77748;SDS011;66938;52.084;5.228;2023-07-22T00:32:17;19.7;;;15.9;;
77748;SDS011;66938;52.084;5.228;2023-07-22T00:33:53;21.9;;;17.2;;
77748;SDS011;66938;52.084;5.228;2023-07-22T00:35:29;22.2;;;18.61;;
77748;SDS011;66938;52.084;5.228;2023-07-22T00:38:42;22.6;;;17.5;;
77748;SDS011;66938;52.084;5.228;2023-07-22T00:40:18;20.8;;;17.2;;
77748;SDS011;66938;52.084;5.228;2023-07-22T00:41:54;23.6;;;18.41;;
77748;SDS011;66938;52.084;5.228;2023-07-22T00:43:30;20.6;;;17.7;;
77748;SDS011;66938;52.084;5.228;2023-07-22T00:46:44;19.11;;;16.2;;
77748;SDS011;66938;52.084;5.228;2023-07-22T00:48:20;19.2;;;15.9;;
77748;SDS011;66938;52.084;5.228;2023-07-22T00:49:57;19.91;;;16.2;;
77748;SDS011;66938;52.084;5.228;2023-07-22T00:53:12;19.5;;;16.11;;
77748;SDS011;66938;52.084;5.228;2023-07-22T00:54:48;19.8;;;15.9;;
77748;SDS011;66938;52.084;5.228;2023-07-22T00:56:24;21.5;;;17.3;;
77748;SDS011;66938;52.084;5.228;2023-07-22T00:59:38;21.7;;;18.0;;
77748;SDS011;66938;52.084;5.228;2023-07-22T01:01:15;22.9;;;17.7;;
77748;SDS011;66938;52.084;5.228;2023-07-22T01:02:51;24.4;;;19.5;;
77748;SDS011;66938;52.084;5.228;2023-07-22T01:04:28;21.9;;;18.3;;
77748;SDS011;66938;52.084;5.228;2023-07-22T01:07:40;21.7;;;18.11;;
77748;SDS011;66938;52.084;5.228;2023-07-22T01:09:17;24.0;;;18.61;;
77748;SDS011;66938;52.084;5.228;2023-07-22T01:10:53;24.2;;;18.91;;
77748;SDS011;66938;52.084;5.228;2023-07-22T01:14:06;22.6;;;17.91;;
77748;SDS011;66938;52.084;5.228;2023-07-22T01:15:42;26.3;;;21.3;;
77748;SDS011;66938;52.084;5.228;2023-07-22T01:17:19;25.9;;;21.4;;
77748;SDS011;66938;52.084;5.228;2023-07-22T01:20:33;23.8;;;19.8;;
77748;SDS011;66938;52.084;5.228;2023-07-22T01:22:11;26.6;;;20.5;;
77748;SDS011;66938;52.084;5.228;2023-07-22T01:23:49;25.7;;;20.41;;
77748;SDS011;66938;52.084;5.228;2023-07-22T01:25:26;24.2;;;20.11;;
77748;SDS011;66938;52.084;5.228;2023-07-22T01:28:43;29.5;;;22.8;;
77748;SDS011;66938;52.084;5.228;2023-07-22T01:30:20;29.7;;;22.2;;
77748;SDS011;66938;52.084;5.228;2023-07-22T01:31:56;27.5;;;21.8;;
77748;SDS011;66938;52.084;5.228;2023-07-22T01:35:08;26.9;;;21.0;;
77748;SDS011;66938;52.084;5.228;2023-07-22T01:36:46;26.1;;;21.3;;
77748;SDS011;66938;52.084;5.228;2023-07-22T01:38:22;25.3;;;20.8;;
77748;SDS011;66938;52.084;5.228;2023-07-22T01:39:59;27.2;;;21.5;;
77748;SDS011;66938;52.084;5.228;2023-07-22T01:43:11;29.2;;;22.5;;
77748;SDS011;66938;52.084;5.228;2023-07-22T01:44:47;27.0;;;22.0;;
77748;SDS011;66938;52.084;5.228;2023-07-22T01:46:23;25.2;;;21.5;;
77748;SDS011;66938;52.084;5.228;2023-07-22T01:49:35;24.7;;;21.1;;
77748;SDS011;66938;52.084;5.228;2023-07-22T01:51:11;26.5;;;21.4;;
77748;SDS011;66938;52.084;5.228;2023-07-22T01:52:47;24.7;;;20.9;;
77748;SDS011;66938;52.084;5.228;2023-07-22T01:56:00;27.7;;;22.0;;
77748;SDS011;66938;52.084;5.228;2023-07-22T01:57:36;26.0;;;21.7;;
77748;SDS011;66938;52.084;5.228;2023-07-22T01:59:12;33.6;;;22.7;;
77748;SDS011;66938;52.084;5.228;2023-07-22T02:02:25;28.4;;;22.9;;
77748;SDS011;66938;52.084;5.228;2023-07-22T02:04:02;28.4;;;22.9;;
77748;SDS011;66938;52.084;5.228;2023-07-22T02:05:38;25.5;;;21.3;;
77748;SDS011;66938;52.084;5.228;2023-07-22T02:07:14;28.6;;;22.6;;
77748;SDS011;66938;52.084;5.228;2023-07-22T02:10:26;26.9;;;22.2;;
77748;SDS011;66938;52.084;5.228;2023-07-22T02:12:03;32.6;;;25.9;;
77748;SDS011;66938;52.084;5.228;2023-07-22T02:13:40;29.3;;;23.3;;
77748;SDS011;66938;52.084;5.228;2023-07-22T02:16:52;28.1;;;22.7;;
77748;SDS011;66938;52.084;5.228;2023-07-22T02:18:28;29.9;;;23.3;;
77748;SDS011;66938;52.084;5.228;2023-07-22T02:20:06;32.21;;;25.0;;
77748;SDS011;66938;52.084;5.228;2023-07-22T02:23:19;30.0;;;23.9;;
77748;SDS011;66938;52.084;5.228;2023-07-22T02:24:56;28.5;;;22.6;;
77748;SDS011;66938;52.084;5.228;2023-07-22T02:26:33;28.5;;;22.7;;
77748;SDS011;66938;52.084;5.228;2023-07-22T02:28:09;29.5;;;23.4;;
77748;SDS011;66938;52.084;5.228;2023-07-22T02:31:21;30.0;;;22.7;;
77748;SDS011;66938;52.084;5.228;2023-07-22T02:32:57;25.2;;;20.8;;
77748;SDS011;66938;52.084;5.228;2023-07-22T02:34:33;26.4;;;21.5;;
77748;SDS011;66938;52.084;5.228;2023-07-22T02:37:45;29.4;;;23.7;;
77748;SDS011;66938;52.084;5.228;2023-07-22T02:39:21;26.8;;;21.5;;
77748;SDS011;66938;52.084;5.228;2023-07-22T02:41:01;30.5;;;23.6;;
77748;SDS011;66938;52.084;5.228;2023-07-22T02:44:15;31.0;;;23.9;;
77748;SDS011;66938;52.084;5.228;2023-07-22T02:45:52;28.7;;;23.1;;
77748;SDS011;66938;52.084;5.228;2023-07-22T02:47:29;26.6;;;21.6;;
77748;SDS011;66938;52.084;5.228;2023-07-22T02:49:05;28.4;;;22.2;;
77748;SDS011;66938;52.084;5.228;2023-07-22T02:52:17;26.4;;;21.7;;
77748;SDS011;66938;52.084;5.228;2023-07-22T02:53:53;27.0;;;22.7;;
77748;SDS011;66938;52.084;5.228;2023-07-22T02:55:29;28.9;;;23.5;;
77748;SDS011;66938;52.084;5.228;2023-07-22T02:58:42;29.2;;;23.4;;
77748;SDS011;66938;52.084;5.228;2023-07-22T03:00:18;26.6;;;22.3;;
77748;SDS011;66938;52.084;5.228;2023-07-22T03:01:56;26.6;;;21.8;;
77748;SDS011;66938;52.084;5.228;2023-07-22T03:05:08;28.5;;;22.9;;
77748;SDS011;66938;52.084;5.228;2023-07-22T03:06:46;30.7;;;24.3;;
77748;SDS011;66938;52.084;5.228;2023-07-22T03:08:22;31.9;;;24.6;;
77748;SDS011;66938;52.084;5.228;2023-07-22T03:09:58;35.4;;;25.6;;
77748;SDS011;66938;52.084;5.228;2023-07-22T03:13:11;27.9;;;24.1;;
77748;SDS011;66938;52.084;5.228;2023-07-22T03:14:47;29.6;;;24.9;;
77748;SDS011;66938;52.084;5.228;2023-07-22T03:16:23;29.5;;;22.7;;
77748;SDS011;66938;52.084;5.228;2023-07-22T03:19:35;27.0;;;21.6;;
77748;SDS011;66938;52.084;5.228;2023-07-22T03:21:11;28.2;;;22.4;;
77748;SDS011;66938;52.084;5.228;2023-07-22T03:22:48;27.7;;;22.3;;
77748;SDS011;66938;52.084;5.228;2023-07-22T03:26:01;27.4;;;22.7;;
77748;SDS011;66938;52.084;5.228;2023-07-22T03:27:37;27.2;;;23.2;;
77748;SDS011;66938;52.084;5.228;2023-07-22T03:29:14;30.2;;;24.3;;
77748;SDS011;66938;52.084;5.228;2023-07-22T03:32:26;29.2;;;23.3;;
77748;SDS011;66938;52.084;5.228;2023-07-22T03:34:02;28.8;;;22.9;;
77748;SDS011;66938;52.084;5.228;2023-07-22T03:35:38;26.8;;;21.6;;
77748;SDS011;66938;52.084;5.228;2023-07-22T03:37:14;25.9;;;22.1;;
77748;SDS011;66938;52.084;5.228;2023-07-22T03:40:27;25.6;;;21.5;;
77748;SDS011;66938;52.084;5.228;2023-07-22T03:42:03;24.6;;;20.7;;
77748;SDS011;66938;52.084;5.228;2023-07-22T03:43:40;25.8;;;22.1;;
77748;SDS011;66938;52.084;5.228;2023-07-22T03:46:53;26.1;;;21.6;;
77748;SDS011;66938;52.084;5.228;2023-07-22T03:48:29;28.5;;;22.5;;
77748;SDS011;66938;52.084;5.228;2023-07-22T03:50:06;24.2;;;21.1;;
77748;SDS011;66938;52.084;5.228;2023-07-22T03:53:18;25.3;;;21.2;;
77748;SDS011;66938;52.084;5.228;2023-07-22T03:54:54;26.5;;;21.4;;
77748;SDS011;66938;52.084;5.228;2023-07-22T03:56:31;29.6;;;24.1;;
77748;SDS011;66938;52.084;5.228;2023-07-22T03:58:07;25.0;;;20.9;;
77748;SDS011;66938;52.084;5.228;2023-07-22T04:01:19;25.5;;;20.9;;
77748;SDS011;66938;52.084;5.228;2023-07-22T04:02:55;25.3;;;20.8;;
77748;SDS011;66938;52.084;5.228;2023-07-22T04:04:31;25.6;;;21.3;;
77748;SDS011;66938;52.084;5.228;2023-07-22T04:07:44;26.2;;;21.3;;
77748;SDS011;66938;52.084;5.228;2023-07-22T04:09:21;24.4;;;20.41;;
77748;SDS011;66938;52.084;5.228;2023-07-22T04:10:57;24.4;;;20.41;;
77748;SDS011;66938;52.084;5.228;2023-07-22T04:14:10;26.5;;;21.6;;
77748;SDS011;66938;52.084;5.228;2023-07-22T04:15:46;27.5;;;21.3;;
77748;SDS011;66938;52.084;5.228;2023-07-22T04:17:23;27.8;;;21.4;;
77748;SDS011;66938;52.084;5.228;2023-07-22T04:18:58;26.0;;;20.7;;
77748;SDS011;66938;52.084;5.228;2023-07-22T04:22:11;28.8;;;22.1;;
77748;SDS011;66938;52.084;5.228;2023-07-22T04:23:47;25.8;;;20.8;;
77748;SDS011;66938;52.084;5.228;2023-07-22T04:25:23;26.3;;;21.6;;
77748;SDS011;66938;52.084;5.228;2023-07-22T04:28:37;25.7;;;20.7;;
77748;SDS011;66938;52.084;5.228;2023-07-22T04:30:13;25.9;;;21.5;;
77748;SDS011;66938;52.084;5.228;2023-07-22T04:31:49;28.8;;;22.2;;
77748;SDS011;66938;52.084;5.228;2023-07-22T04:35:03;26.3;;;21.8;;
77748;SDS011;66938;52.084;5.228;2023-07-22T04:36:40;26.4;;;21.9;;
77748;SDS011;66938;52.084;5.228;2023-07-22T04:38:16;25.8;;;21.2;;
77748;SDS011;66938;52.084;5.228;2023-07-22T04:41:28;28.5;;;21.7;;
77748;SDS011;66938;52.084;5.228;2023-07-22T04:43:04;28.8;;;21.7;;
77748;SDS011;66938;52.084;5.228;2023-07-22T04:44:40;28.0;;;21.2;;
77748;SDS011;66938;52.084;5.228;2023-07-22T04:46:16;29.4;;;22.5;;
77748;SDS011;66938;52.084;5.228;2023-07-22T04:49:28;29.7;;;23.0;;
77748;SDS011;66938;52.084;5.228;2023-07-22T04:51:05;28.1;;;22.3;;
77748;SDS011;66938;52.084;5.228;2023-07-22T04:52:41;32.1;;;24.0;;
77748;SDS011;66938;52.084;5.228;2023-07-22T04:55:55;31.7;;;22.1;;
77748;SDS011;66938;52.084;5.228;2023-07-22T04:57:31;31.3;;;23.1;;
77748;SDS011;66938;52.084;5.228;2023-07-22T04:59:07;30.1;;;21.7;;
77748;SDS011;66938;52.084;5.228;2023-07-22T05:02:19;29.2;;;23.0;;
77748;SDS011;66938;52.084;5.228;2023-07-22T05:03:55;31.7;;;23.7;;
77748;SDS011;66938;52.084;5.228;2023-07-22T05:05:32;32.9;;;25.4;;
77748;SDS011;66938;52.084;5.228;2023-07-22T05:07:08;29.5;;;23.2;;
77748;SDS011;66938;52.084;5.228;2023-07-22T05:10:20;28.7;;;22.3;;
77748;SDS011;66938;52.084;5.228;2023-07-22T05:11:56;29.8;;;23.8;;
77748;SDS011;66938;52.084;5.228;2023-07-22T05:13:32;30.5;;;23.4;;
77748;SDS011;66938;52.084;5.228;2023-07-22T05:16:46;34.0;;;23.7;;
77748;SDS011;66938;52.084;5.228;2023-07-22T05:18:22;30.0;;;23.1;;
77748;SDS011;66938;52.084;5.228;2023-07-22T05:19:58;34.6;;;25.2;;
77748;SDS011;66938;52.084;5.228;2023-07-22T05:23:11;34.5;;;24.2;;
77748;SDS011;66938;52.084;5.228;2023-07-22T05:24:47;31.3;;;23.0;;
77748;SDS011;66938;52.084;5.228;2023-07-22T05:26:23;34.0;;;24.6;;
77748;SDS011;66938;52.084;5.228;2023-07-22T05:29:35;31.0;;;24.0;;
77748;SDS011;66938;52.084;5.228;2023-07-22T05:31:11;32.4;;;24.7;;
77748;SDS011;66938;52.084;5.228;2023-07-22T05:32:47;29.4;;;24.2;;
77748;SDS011;66938;52.084;5.228;2023-07-22T05:34:26;33.0;;;24.9;;
77748;SDS011;66938;52.084;5.228;2023-07-22T05:37:40;30.9;;;24.6;;
77748;SDS011;66938;52.084;5.228;2023-07-22T05:39:16;38.71;;;27.1;;
77748;SDS011;66938;52.084;5.228;2023-07-22T05:40:52;35.6;;;26.5;;
77748;SDS011;66938;52.084;5.228;2023-07-22T05:44:04;35.4;;;26.5;;
77748;SDS011;66938;52.084;5.228;2023-07-22T05:45:40;37.6;;;27.2;;
77748;SDS011;66938;52.084;5.228;2023-07-22T05:47:16;39.0;;;27.3;;
77748;SDS011;66938;52.084;5.228;2023-07-22T05:50:29;38.9;;;28.8;;
77748;SDS011;66938;52.084;5.228;2023-07-22T05:52:05;32.8;;;25.6;;
77748;SDS011;66938;52.084;5.228;2023-07-22T05:53:42;36.9;;;26.7;;
77748;SDS011;66938;52.084;5.228;2023-07-22T05:55:18;38.9;;;27.5;;
77748;SDS011;66938;52.084;5.228;2023-07-22T05:58:30;37.1;;;27.1;;
77748;SDS011;66938;52.084;5.228;2023-07-22T06:00:07;36.0;;;25.9;;
77748;SDS011;66938;52.084;5.228;2023-07-22T06:01:43;34.4;;;25.9;;
77748;SDS011;66938;52.084;5.228;2023-07-22T06:04:56;36.5;;;26.0;;
77748;SDS011;66938;52.084;5.228;2023-07-22T06:06:32;34.21;;;26.4;;
77748;SDS011;66938;52.084;5.228;2023-07-22T06:08:08;37.71;;;28.0;;
77748;SDS011;66938;52.084;5.228;2023-07-22T06:11:20;38.1;;;27.6;;
77748;SDS011;66938;52.084;5.228;2023-07-22T06:12:56;36.31;;;27.2;;
77748;SDS011;66938;52.084;5.228;2023-07-22T06:14:32;36.21;;;27.4;;
77748;SDS011;66938;52.084;5.228;2023-07-22T06:16:09;37.6;;;28.1;;
77748;SDS011;66938;52.084;5.228;2023-07-22T06:19:21;34.71;;;26.6;;
77748;SDS011;66938;52.084;5.228;2023-07-22T06:20:57;33.1;;;26.8;;
77748;SDS011;66938;52.084;5.228;2023-07-22T06:22:33;33.9;;;26.2;;
77748;SDS011;66938;52.084;5.228;2023-07-22T06:25:45;33.8;;;26.1;;
77748;SDS011;66938;52.084;5.228;2023-07-22T06:27:21;37.0;;;26.7;;
77748;SDS011;66938;52.084;5.228;2023-07-22T06:28:58;34.0;;;26.1;;
77748;SDS011;66938;52.084;5.228;2023-07-22T06:32:11;34.6;;;26.9;;
77748;SDS011;66938;52.084;5.228;2023-07-22T06:33:48;34.21;;;26.0;;
77748;SDS011;66938;52.084;5.228;2023-07-22T06:35:24;30.9;;;25.1;;
77748;SDS011;66938;52.084;5.228;2023-07-22T06:38:36;34.31;;;26.5;;
77748;SDS011;66938;52.084;5.228;2023-07-22T06:40:12;32.6;;;25.7;;
77748;SDS011;66938;52.084;5.228;2023-07-22T06:41:48;35.31;;;26.9;;
77748;SDS011;66938;52.084;5.228;2023-07-22T06:43:24;32.0;;;24.8;;
77748;SDS011;66938;52.084;5.228;2023-07-22T06:46:36;35.0;;;27.4;;
77748;SDS011;66938;52.084;5.228;2023-07-22T06:48:13;32.71;;;25.2;;
77748;SDS011;66938;52.084;5.228;2023-07-22T06:49:49;30.2;;;24.6;;
77748;SDS011;66938;52.084;5.228;2023-07-22T06:53:01;30.2;;;24.1;;
77748;SDS011;66938;52.084;5.228;2023-07-22T06:54:37;32.1;;;25.7;;
77748;SDS011;66938;52.084;5.228;2023-07-22T06:56:13;31.9;;;24.4;;
77748;SDS011;66938;52.084;5.228;2023-07-22T06:59:26;32.0;;;25.4;;
77748;SDS011;66938;52.084;5.228;2023-07-22T07:01:02;34.81;;;26.8;;
77748;SDS011;66938;52.084;5.228;2023-07-22T07:02:38;31.6;;;24.9;;
77748;SDS011;66938;52.084;5.228;2023-07-22T07:04:14;30.9;;;24.9;;
77748;SDS011;66938;52.084;5.228;2023-07-22T07:07:28;32.0;;;25.3;;
77748;SDS011;66938;52.084;5.228;2023-07-22T07:09:04;33.1;;;25.9;;
77748;SDS011;66938;52.084;5.228;2023-07-22T07:10:40;28.8;;;24.0;;
77748;SDS011;66938;52.084;5.228;2023-07-22T07:13:52;29.0;;;24.4;;
77748;SDS011;66938;52.084;5.228;2023-07-22T07:15:29;29.2;;;24.5;;
77748;SDS011;66938;52.084;5.228;2023-07-22T07:17:05;27.9;;;23.8;;
77748;SDS011;66938;52.084;5.228;2023-07-22T07:20:17;29.9;;;24.4;;
77748;SDS011;66938;52.084;5.228;2023-07-22T07:21:53;31.0;;;23.6;;
77748;SDS011;66938;52.084;5.228;2023-07-22T07:23:29;26.3;;;22.8;;
77748;SDS011;66938;52.084;5.228;2023-07-22T07:26:42;29.0;;;22.9;;
77748;SDS011;66938;52.084;5.228;2023-07-22T07:28:19;29.2;;;21.8;;
77748;SDS011;66938;52.084;5.228;2023-07-22T07:29:54;29.7;;;23.0;;
77748;SDS011;66938;52.084;5.228;2023-07-22T07:31:31;25.5;;;21.8;;
77748;SDS011;66938;52.084;5.228;2023-07-22T07:34:43;28.9;;;23.0;;
77748;SDS011;66938;52.084;5.228;2023-07-22T07:36:19;28.7;;;22.4;;
77748;SDS011;66938;52.084;5.228;2023-07-22T07:37:55;27.2;;;22.3;;
77748;SDS011;66938;52.084;5.228;2023-07-22T07:41:07;26.3;;;21.5;;
77748;SDS011;66938;52.084;5.228;2023-07-22T07:42:44;27.7;;;23.1;;
77748;SDS011;66938;52.084;5.228;2023-07-22T07:44:20;25.9;;;21.5;;
77748;SDS011;66938;52.084;5.228;2023-07-22T07:47:52;24.9;;;21.7;;
77748;SDS011;66938;52.084;5.228;2023-07-22T07:49:28;25.7;;;21.6;;
77748;SDS011;66938;52.084;5.228;2023-07-22T07:51:04;25.6;;;20.7;;
77748;SDS011;66938;52.084;5.228;2023-07-22T07:52:40;25.9;;;21.1;;
77748;SDS011;66938;52.084;5.228;2023-07-22T07:55:52;22.9;;;19.8;;
77748;SDS011;66938;52.084;5.228;2023-07-22T07:57:29;23.1;;;19.5;;
77748;SDS011;66938;52.084;5.228;2023-07-22T07:59:05;23.3;;;19.8;;
77748;SDS011;66938;52.084;5.228;2023-07-22T08:02:17;22.7;;;19.5;;
77748;SDS011;66938;52.084;5.228;2023-07-22T08:03:53;21.8;;;18.7;;
77748;SDS011;66938;52.084;5.228;2023-07-22T08:05:29;22.1;;;18.5;;
77748;SDS011;66938;52.084;5.228;2023-07-22T08:07:06;21.9;;;17.5;;
77748;SDS011;66938;52.084;5.228;2023-07-22T08:10:18;21.5;;;16.9;;
77748;SDS011;66938;52.084;5.228;2023-07-22T08:11:55;19.91;;;15.6;;
77748;SDS011;66938;52.084;5.228;2023-07-22T08:13:31;18.8;;;15.8;;
77748;SDS011;66938;52.084;5.228;2023-07-22T08:16:45;20.0;;;16.61;;
77748;SDS011;66938;52.084;5.228;2023-07-22T08:18:21;18.0;;;15.5;;
77748;SDS011;66938;52.084;5.228;2023-07-22T08:19:57;18.8;;;15.3;;
77748;SDS011;66938;52.084;5.228;2023-07-22T08:23:09;20.5;;;15.8;;
77748;SDS011;66938;52.084;5.228;2023-07-22T08:24:45;20.5;;;15.7;;
77748;SDS011;66938;52.084;5.228;2023-07-22T08:26:22;19.0;;;15.0;;
77748;SDS011;66938;52.084;5.228;2023-07-22T08:27:58;20.0;;;15.4;;
77748;SDS011;66938;52.084;5.228;2023-07-22T08:31:10;17.8;;;14.4;;
77748;SDS011;66938;52.084;5.228;2023-07-22T08:32:46;18.11;;;14.3;;
77748;SDS011;66938;52.084;5.228;2023-07-22T08:34:22;16.9;;;14.1;;
77748;SDS011;66938;52.084;5.228;2023-07-22T08:37:34;15.6;;;12.7;;
77748;SDS011;66938;52.084;5.228;2023-07-22T08:39:10;17.11;;;13.1;;
77748;SDS011;66938;52.084;5.228;2023-07-22T08:40:48;15.0;;;12.1;;
77748;SDS011;66938;52.084;5.228;2023-07-22T08:44:05;15.0;;;12.7;;
77748;SDS011;66938;52.084;5.228;2023-07-22T08:45:46;15.0;;;12.2;;
77748;SDS011;66938;52.084;5.228;2023-07-22T08:47:24;15.0;;;11.8;;
77748;SDS011;66938;52.084;5.228;2023-07-22T08:49:05;15.4;;;12.0;;
77748;SDS011;66938;52.084;5.228;2023-07-22T08:52:24;15.3;;;11.6;;
77748;SDS011;66938;52.084;5.228;2023-07-22T08:54:00;14.2;;;11.7;;
77748;SDS011;66938;52.084;5.228;2023-07-22T08:55:39;15.5;;;11.6;;
77748;SDS011;66938;52.084;5.228;2023-07-22T08:57:15;14.4;;;11.2;;
77748;SDS011;66938;52.084;5.228;2023-07-22T09:00:30;11.5;;;9.81;;
77748;SDS011;66938;52.084;5.228;2023-07-22T09:02:08;14.1;;;9.9;;
77748;SDS011;66938;52.084;5.228;2023-07-22T09:03:48;13.6;;;9.5;;
77748;SDS011;66938;52.084;5.228;2023-07-22T09:07:02;12.5;;;9.31;;
77748;SDS011;66938;52.084;5.228;2023-07-22T09:08:39;11.7;;;9.6;;
77748;SDS011;66938;52.084;5.228;2023-07-22T09:10:16;14.4;;;10.21;;
77748;SDS011;66938;52.084;5.228;2023-07-22T09:11:53;13.7;;;10.0;;
77748;SDS011;66938;52.084;5.228;2023-07-22T09:15:08;11.9;;;9.21;;
77748;SDS011;66938;52.084;5.228;2023-07-22T09:16:47;12.8;;;9.6;;
77748;SDS011;66938;52.084;5.228;2023-07-22T09:18:23;12.4;;;9.4;;
77748;SDS011;66938;52.084;5.228;2023-07-22T09:21:36;13.2;;;9.81;;
77748;SDS011;66938;52.084;5.228;2023-07-22T09:23:12;13.7;;;9.9;;
77748;SDS011;66938;52.084;5.228;2023-07-22T09:24:50;11.0;;;8.81;;
77748;SDS011;66938;52.084;5.228;2023-07-22T09:28:02;13.5;;;9.71;;
77748;SDS011;66938;52.084;5.228;2023-07-22T09:29:38;12.2;;;8.9;;
77748;SDS011;66938;52.084;5.228;2023-07-22T09:31:15;12.2;;;9.21;;
77748;SDS011;66938;52.084;5.228;2023-07-22T09:32:52;11.5;;;8.6;;
77748;SDS011;66938;52.084;5.228;2023-07-22T09:36:06;11.2;;;8.6;;
77748;SDS011;66938;52.084;5.228;2023-07-22T09:37:42;11.3;;;8.2;;
77748;SDS011;66938;52.084;5.228;2023-07-22T09:39:19;10.6;;;8.0;;
77748;SDS011;66938;52.084;5.228;2023-07-22T09:42:31;11.0;;;8.0;;
77748;SDS011;66938;52.084;5.228;2023-07-22T09:44:09;9.5;;;7.9;;
77748;SDS011;66938;52.084;5.228;2023-07-22T09:45:46;9.31;;;7.0;;
77748;SDS011;66938;52.084;5.228;2023-07-22T09:47:23;9.6;;;7.5;;
77748;SDS011;66938;52.084;5.228;2023-07-22T09:50:39;9.9;;;7.0;;
77748;SDS011;66938;52.084;5.228;2023-07-22T09:52:15;10.1;;;7.8;;
77748;SDS011;66938;52.084;5.228;2023-07-22T09:53:59;10.5;;;7.7;;
77748;SDS011;66938;52.084;5.228;2023-07-22T09:57:12;10.1;;;6.8;;
77748;SDS011;66938;52.084;5.228;2023-07-22T09:58:49;9.81;;;6.9;;
77748;SDS011;66938;52.084;5.228;2023-07-22T10:00:28;8.81;;;6.8;;
77748;SDS011;66938;52.084;5.228;2023-07-22T10:02:06;10.1;;;6.9;;
77748;SDS011;66938;52.084;5.228;2023-07-22T10:05:29;8.71;;;7.0;;
77748;SDS011;66938;52.084;5.228;2023-07-22T10:07:09;10.6;;;6.7;;
77748;SDS011;66938;52.084;5.228;2023-07-22T10:08:46;9.6;;;6.6;;
77748;SDS011;66938;52.084;5.228;2023-07-22T10:12:06;8.81;;;6.2;;
77748;SDS011;66938;52.084;5.228;2023-07-22T10:13:43;7.6;;;5.7;;
77748;SDS011;66938;52.084;5.228;2023-07-22T10:15:20;7.0;;;5.4;;
77748;SDS011;66938;52.084;5.228;2023-07-22T10:16:56;7.8;;;6.0;;
77748;SDS011;66938;52.084;5.228;2023-07-22T10:20:10;7.5;;;5.8;;
77748;SDS011;66938;52.084;5.228;2023-07-22T10:21:48;8.9;;;6.2;;
77748;SDS011;66938;52.084;5.228;2023-07-22T10:23:25;9.0;;;6.0;;
77748;SDS011;66938;52.084;5.228;2023-07-22T10:25:04;8.31;;;5.9;;
77748;SDS011;66938;52.084;5.228;2023-07-22T10:28:17;7.8;;;5.5;;
77748;SDS011;66938;52.084;5.228;2023-07-22T10:29:55;7.8;;;5.7;;
77748;SDS011;66938;52.084;5.228;2023-07-22T10:31:31;7.0;;;5.2;;
77748;SDS011;66938;52.084;5.228;2023-07-22T10:34:43;8.5;;;5.7;;
77748;SDS011;66938;52.084;5.228;2023-07-22T10:36:19;9.4;;;5.9;;
77748;SDS011;66938;52.084;5.228;2023-07-22T10:37:56;7.3;;;5.5;;
77748;SDS011;66938;52.084;5.228;2023-07-22T10:39:43;7.3;;;5.2;;
77748;SDS011;66938;52.084;5.228;2023-07-22T10:42:57;7.8;;;5.11;;
77748;SDS011;66938;52.084;5.228;2023-07-22T10:44:38;8.4;;;5.3;;
77748;SDS011;66938;52.084;5.228;2023-07-22T10:46:15;9.21;;;6.2;;
77748;SDS011;66938;52.084;5.228;2023-07-22T10:49:42;6.8;;;4.91;;
77748;SDS011;66938;52.084;5.228;2023-07-22T10:51:23;7.8;;;5.0;;
77748;SDS011;66938;52.084;5.228;2023-07-22T10:53:12;7.7;;;5.7;;
77748;SDS011;66938;52.084;5.228;2023-07-22T10:54:55;7.7;;;5.3;;
77748;SDS011;66938;52.084;5.228;2023-07-22T10:56:31;7.2;;;5.4;;
77748;SDS011;66938;52.084;5.228;2023-07-22T10:59:47;7.7;;;5.3;;
77748;SDS011;66938;52.084;5.228;2023-07-22T11:01:33;7.0;;;5.11;;
77748;SDS011;66938;52.084;5.228;2023-07-22T11:03:20;7.9;;;5.8;;
77748;SDS011;66938;52.084;5.228;2023-07-22T11:04:56;9.31;;;5.6;;
77748;SDS011;66938;52.084;5.228;2023-07-22T11:08:10;7.7;;;5.7;;
77748;SDS011;66938;52.084;5.228;2023-07-22T11:09:46;6.8;;;6.0;;
77748;SDS011;66938;52.084;5.228;2023-07-22T11:11:31;8.9;;;6.2;;
77748;SDS011;66938;52.084;5.228;2023-07-22T11:13:10;9.4;;;5.9;;
77748;SDS011;66938;52.084;5.228;2023-07-22T11:16:27;8.9;;;6.2;;
77748;SDS011;66938;52.084;5.228;2023-07-22T11:18:06;8.4;;;5.7;;
77748;SDS011;66938;52.084;5.228;2023-07-22T11:19:42;8.31;;;5.8;;
77748;SDS011;66938;52.084;5.228;2023-07-22T11:22:54;8.71;;;5.9;;
77748;SDS011;66938;52.084;5.228;2023-07-22T11:24:32;8.81;;;6.4;;
77748;SDS011;66938;52.084;5.228;2023-07-22T11:26:09;8.5;;;5.7;;
77748;SDS011;66938;52.084;5.228;2023-07-22T11:29:22;8.6;;;5.6;;
77748;SDS011;66938;52.084;5.228;2023-07-22T11:30:59;7.2;;;5.0;;
77748;SDS011;66938;52.084;5.228;2023-07-22T11:32:36;8.0;;;4.5;;
77748;SDS011;66938;52.084;5.228;2023-07-22T11:34:18;7.2;;;4.61;;
77748;SDS011;66938;52.084;5.228;2023-07-22T11:37:32;7.7;;;4.2;;
77748;SDS011;66938;52.084;5.228;2023-07-22T11:39:09;6.7;;;4.41;;
77748;SDS011;66938;52.084;5.228;2023-07-22T11:40:46;8.31;;;4.5;;
77748;SDS011;66938;52.084;5.228;2023-07-22T11:44:00;9.6;;;5.0;;
77748;SDS011;66938;52.084;5.228;2023-07-22T11:45:37;9.6;;;5.0;;
77748;SDS011;66938;52.084;5.228;2023-07-22T11:47:15;7.9;;;4.3;;
77748;SDS011;66938;52.084;5.228;2023-07-22T11:48:51;7.9;;;4.3;;
77748;SDS011;66938;52.084;5.228;2023-07-22T11:52:10;7.2;;;4.41;;
77748;SDS011;66938;52.084;5.228;2023-07-22T11:53:52;8.2;;;4.61;;
77748;SDS011;66938;52.084;5.228;2023-07-22T11:55:29;7.2;;;4.3;;
77748;SDS011;66938;52.084;5.228;2023-07-22T11:57:09;6.0;;;4.3;;
77748;SDS011;66938;52.084;5.228;2023-07-22T12:00:25;7.4;;;5.0;;
77748;SDS011;66938;52.084;5.228;2023-07-22T12:02:01;5.2;;;4.41;;
77748;SDS011;66938;52.084;5.228;2023-07-22T12:03:37;7.2;;;4.8;;
77748;SDS011;66938;52.084;5.228;2023-07-22T12:06:57;7.2;;;5.3;;
77748;SDS011;66938;52.084;5.228;2023-07-22T12:08:33;6.8;;;4.8;;
77748;SDS011;66938;52.084;5.228;2023-07-22T12:10:11;7.2;;;5.4;;
77748;SDS011;66938;52.084;5.228;2023-07-22T12:11:47;8.71;;;5.5;;
77748;SDS011;66938;52.084;5.228;2023-07-22T12:15:12;6.9;;;5.0;;
77748;SDS011;66938;52.084;5.228;2023-07-22T12:16:52;6.9;;;5.0;;
77748;SDS011;66938;52.084;5.228;2023-07-22T12:18:40;7.0;;;5.5;;
77748;SDS011;66938;52.084;5.228;2023-07-22T12:20:18;8.0;;;5.7;;
77748;SDS011;66938;52.084;5.228;2023-07-22T12:23:36;8.2;;;5.9;;
77748;SDS011;66938;52.084;5.228;2023-07-22T12:25:13;7.1;;;5.6;;
77748;SDS011;66938;52.084;5.228;2023-07-22T12:26:48;7.7;;;5.11;;
77748;SDS011;66938;52.084;5.228;2023-07-22T12:30:01;7.7;;;6.0;;
77748;SDS011;66938;52.084;5.228;2023-07-22T12:31:37;6.9;;;5.9;;
77748;SDS011;66938;52.084;5.228;2023-07-22T12:33:13;8.6;;;5.5;;
77748;SDS011;66938;52.084;5.228;2023-07-22T12:34:49;8.1;;;5.9;;
77748;SDS011;66938;52.084;5.228;2023-07-22T12:38:01;7.4;;;5.5;;
77748;SDS011;66938;52.084;5.228;2023-07-22T12:39:37;8.6;;;6.1;;